Urb Los Alamos, Puerto Rico
Current Conditions -  °F | °C
As of 2:50 PM on Friday 24 Oct 2014 (Local Time) from TJBQ Reporting Station
Light Rain Light Rain  
Wind Chill: 81°   Ceiling: 2900
Heat Index: 87°   Visibility: 10mi
Dew Point: 77°   Wind: 3mph
Humidity: 89%   Direction: 320°NW
Pressure: 29.89"   Gusts: NA
Location:  18.3413°N, 66.991°W
Report Text: TJBQ 241850Z 32003KT 10SM -RA SCT016 BKN029 BKN050 27/25 A2989 RMK RWY08 - ATIS Y
Loading
Personal Weather Stations






























Interactive Weather Map
Tropical Storm Tracking
New forecast layout! Learn more

10-Day Weather Forecast

Advertisements
Track Severe Weather on mobile